Aviation Digital Data Service (ADDS)

Output produced by METARs form (1227 UTC 29 March 2015)
found at http://aviationweather.gov/adds/metars/
 
KRME 291122Z 2912/3012 VRB03KT P6SM SKC 
     FM291500 26006KT P6SM SKC 
     FM300000 12006KT P6SM BKN120 
     FM300700 13010KT 3SM -SN OVC025